Time;durP1;ratioP1;P1;durP2;ratioP2;P2;SDS_P1;SDS_P2;PMS_P1;PMS_P2;Temp;Humidity;BMP_temperature;BMP_pressure;BME280_temperature;BME280_humidity;BME280_pressure;Samples;Min_cycle;Max_cycle;Signal;HPM_P1;HPM_P2
2023/06/06 00:01:51;;;;;;;10.88;3.20;;;11.50;91.10;;;;;;5017567;28;20105;-82
2023/06/06 00:04:17;;;;;;;9.57;3.80;;;11.60;91.00;;;;;;5030485;28;20017;-81
2023/06/06 00:06:44;;;;;;;8.73;3.42;;;11.60;90.90;;;;;;5028411;28;20046;-82
2023/06/06 00:09:11;;;;;;;5.30;3.13;;;11.70;90.80;;;;;;5021900;28;20072;-81
2023/06/06 00:11:39;;;;;;;6.63;3.75;;;11.70;90.80;;;;;;5015207;28;20022;-82
2023/06/06 00:14:07;;;;;;;6.95;3.00;;;11.70;90.70;;;;;;4996284;28;20380;-82
2023/06/06 00:16:34;;;;;;;;;;;11.70;90.70;;;;;;5014142;28;20014;-82
2023/06/06 00:19:01;;;;;;;5.18;3.05;;;11.70;90.50;;;;;;5012192;28;19939;-82
2023/06/06 00:21:32;;;;;;;6.82;3.45;;;11.70;90.50;;;;;;5014051;28;20430;-82
2023/06/06 00:24:02;;;;;;;8.73;3.90;;;11.80;90.50;;;;;;5014442;28;20022;-82
2023/06/06 00:26:28;;;;;;;6.00;2.67;;;11.80;90.50;;;;;;5014548;28;20030;-81
2023/06/06 00:28:54;;;;;;;8.20;3.83;;;11.80;90.50;;;;;;5012828;28;20103;-82
2023/06/06 00:31:20;;;;;;;5.10;3.08;;;11.80;90.40;;;;;;5022192;28;20136;-81
2023/06/06 00:33:46;;;;;;;6.40;3.80;;;11.90;90.40;;;;;;5038091;28;20014;-82
2023/06/06 00:36:12;;;;;;;5.43;3.83;;;11.90;90.30;;;;;;5024426;28;20030;-82
2023/06/06 00:38:37;;;;;;;7.15;2.85;;;11.90;90.20;;;;;;5015027;28;20028;-81
2023/06/06 00:41:03;;;;;;;4.72;3.03;;;12.00;90.10;;;;;;5014881;28;20080;-81
2023/06/06 00:43:29;;;;;;;8.45;3.53;;;12.00;90.10;;;;;;5014206;28;20099;-83
2023/06/06 00:45:56;;;;;;;9.65;3.17;;;12.00;90.00;;;;;;5014541;28;20091;-82
2023/06/06 00:48:23;;;;;;;6.65;3.58;;;12.00;89.90;;;;;;4999362;28;20053;-82
2023/06/06 00:50:50;;;;;;;4.90;2.78;;;12.10;89.80;;;;;;5006214;28;20010;-82
2023/06/06 00:53:16;;;;;;;6.13;3.30;;;12.10;89.60;;;;;;5031404;28;20021;-81
2023/06/06 00:55:43;;;;;;;6.85;2.75;;;12.20;89.60;;;;;;5028847;28;20018;-82
2023/06/06 00:58:12;;;;;;;5.68;3.08;;;12.20;89.40;;;;;;5020278;28;20026;-80
2023/06/06 01:00:40;;;;;;;5.10;2.97;;;12.20;89.40;;;;;;5001727;28;20538;-82
2023/06/06 01:03:09;;;;;;;7.80;3.05;;;12.20;89.40;;;;;;5003353;28;20018;-80
2023/06/06 01:05:39;;;;;;;7.25;3.35;;;12.20;89.20;;;;;;5013439;28;20037;-80
2023/06/06 01:08:05;;;;;;;5.22;2.88;;;12.20;89.10;;;;;;5014473;28;20097;-80
2023/06/06 01:10:36;;;;;;;9.70;3.93;;;12.30;89.30;;;;;;5014264;28;20041;-81
2023/06/06 01:13:11;;;;;;;8.02;3.65;;;12.30;89.10;;;;;;5013055;28;20029;-80
2023/06/06 01:15:47;;;;;;;5.57;2.65;;;12.30;89.00;;;;;;5026961;28;20037;-80
2023/06/06 01:18:14;;;;;;;8.75;3.00;;;12.30;89.00;;;;;;5030194;28;20029;-81
2023/06/06 01:20:41;;;;;;;6.43;3.00;;;12.30;89.20;;;;;;5023825;28;20026;-81
2023/06/06 01:23:11;;;;;;;5.30;3.33;;;12.30;88.80;;;;;;5013576;28;20018;-81
2023/06/06 01:25:47;;;;;;;3.20;2.45;;;12.30;88.80;;;;;;5014912;28;20025;-82
2023/06/06 01:28:16;;;;;;;5.43;3.22;;;12.30;88.70;;;;;;5001813;28;20061;-83
2023/06/06 01:30:43;;;;;;;4.28;2.90;;;12.30;88.50;;;;;;5013954;28;20022;-82
2023/06/06 01:33:26;;;;;;;5.40;2.80;;;12.40;88.40;;;;;;5016308;28;20024;-80
2023/06/06 01:36:06;;;;;;;3.90;2.70;;;12.40;88.90;;;;;;5017225;28;20026;-81
2023/06/06 01:38:46;;;;;;;3.38;2.83;;;12.40;88.20;;;;;;5012586;28;20475;-81
2023/06/06 01:41:16;;;;;;;7.03;3.35;;;12.40;88.20;;;;;;5009246;28;20034;-82
2023/06/06 01:43:49;;;;;;;7.22;3.25;;;12.40;88.20;;;;;;5006661;28;20467;-83
2023/06/06 01:46:16;;;;;;;7.78;4.35;;;12.40;88.10;;;;;;5013977;28;20390;-82
2023/06/06 01:48:43;;;;;;;5.10;2.50;;;12.40;88.10;;;;;;5026008;28;20077;-82
2023/06/06 01:51:09;;;;;;;4.65;2.38;;;12.40;88.10;;;;;;5035534;28;20010;-81
2023/06/06 01:53:35;;;;;;;5.15;2.65;;;12.40;88.30;;;;;;5033135;28;20034;-83
2023/06/06 01:56:01;;;;;;;5.35;3.25;;;12.40;88.10;;;;;;4997642;28;20041;-83
2023/06/06 01:58:27;;;;;;;5.75;2.97;;;12.40;88.70;;;;;;5007772;28;20097;-81
2023/06/06 02:00:52;;;;;;;4.18;2.88;;;12.50;88.10;;;;;;4996185;28;20073;-81
2023/06/06 02:03:18;;;;;;;7.85;2.97;;;12.50;87.90;;;;;;5003714;28;20091;-82
2023/06/06 02:05:44;;;;;;;4.63;2.72;;;12.50;87.80;;;;;;5012218;28;20022;-82
2023/06/06 02:08:11;;;;;;;3.47;2.30;;;12.50;87.60;;;;;;5013326;28;20058;-83
2023/06/06 02:10:38;;;;;;;5.25;2.67;;;12.50;87.40;;;;;;5014268;28;20395;-81
2023/06/06 02:13:04;;;;;;;3.90;2.22;;;12.60;87.60;;;;;;5014057;28;20033;-81
2023/06/06 02:15:30;;;;;;;6.35;2.58;;;12.60;87.50;;;;;;4995422;28;20026;-80
2023/06/06 02:17:56;;;;;;;6.43;2.60;;;12.60;87.60;;;;;;4994986;28;20054;-81
2023/06/06 02:20:22;;;;;;;6.32;2.80;;;12.70;87.50;;;;;;5012030;28;20443;-81
2023/06/06 02:22:48;;;;;;;5.75;2.88;;;12.70;87.50;;;;;;4994211;28;20050;-81
2023/06/06 02:25:14;;;;;;;5.38;2.92;;;12.70;87.30;;;;;;5013325;28;20026;-82
2023/06/06 02:27:43;;;;;;;9.68;2.83;;;12.80;87.20;;;;;;5011132;28;20119;-82
2023/06/06 02:30:10;;;;;;;6.15;2.70;;;12.80;87.50;;;;;;4994316;28;20026;-82
2023/06/06 02:32:36;;;;;;;4.88;2.38;;;12.80;86.70;;;;;;5011979;28;20030;-81
2023/06/06 02:35:03;;;;;;;4.82;2.25;;;12.80;86.70;;;;;;5012139;28;20033;-82
2023/06/06 02:37:30;;;;;;;8.43;3.08;;;12.90;87.20;;;;;;5013050;28;20022;-81
2023/06/06 02:39:56;;;;;;;8.18;2.65;;;12.90;86.30;;;;;;5033214;28;20053;-81
2023/06/06 02:42:22;;;;;;;7.28;3.03;;;12.90;86.20;;;;;;5018503;28;20053;-79
2023/06/06 02:44:48;;;;;;;4.22;2.65;;;12.90;86.20;;;;;;5012662;28;20029;-81
2023/06/06 02:47:14;;;;;;;3.92;2.50;;;13.00;86.30;;;;;;5014729;28;20054;-82
2023/06/06 02:49:40;;;;;;;4.43;2.08;;;13.00;85.90;;;;;;5030069;28;20049;-80
2023/06/06 02:52:09;;;;;;;7.13;3.17;;;13.10;85.90;;;;;;5014603;28;20526;-81
2023/06/06 02:54:35;;;;;;;5.13;2.50;;;13.20;86.00;;;;;;5032092;28;20030;-81
2023/06/06 02:57:01;;;;;;;2.90;2.30;;;13.20;85.70;;;;;;5021283;28;20018;-80
2023/06/06 02:59:27;;;;;;;2.88;2.20;;;13.30;85.90;;;;;;5002746;28;20027;-81
2023/06/06 03:01:53;;;;;;;5.32;2.53;;;13.30;85.80;;;;;;5014494;28;20088;-82
2023/06/06 03:04:18;;;;;;;6.57;3.03;;;13.40;85.90;;;;;;5015553;28;20097;-82
2023/06/06 03:06:44;;;;;;;3.95;2.83;;;13.50;85.70;;;;;;5015209;28;20034;-83
2023/06/06 03:09:12;;;;;;;4.65;2.78;;;13.50;85.60;;;;;;5016116;28;20129;-81
2023/06/06 03:11:38;;;;;;;5.28;2.97;;;13.50;85.60;;;;;;5025143;28;20060;-80
2023/06/06 03:14:04;;;;;;;4.03;2.55;;;13.60;85.60;;;;;;5014844;28;20026;-81
2023/06/06 03:16:30;;;;;;;4.10;2.25;;;13.70;85.10;;;;;;5015281;28;20017;-81
2023/06/06 03:18:56;;;;;;;7.28;3.10;;;13.80;84.50;;;;;;5015434;28;20028;-82
2023/06/06 03:21:23;;;;;;;4.22;2.50;;;13.90;84.60;;;;;;5015722;28;20497;-82
2023/06/06 03:23:49;;;;;;;4.53;2.45;;;13.90;84.10;;;;;;4996467;28;20030;-81
2023/06/06 03:26:15;;;;;;;5.63;2.83;;;13.90;83.60;;;;;;5015686;28;20086;-81
2023/06/06 03:28:41;;;;;;;4.93;2.35;;;14.00;83.40;;;;;;5015857;28;20038;-82
2023/06/06 03:31:07;;;;;;;5.13;2.67;;;14.10;83.40;;;;;;5016320;28;20076;-81
2023/06/06 03:33:35;;;;;;;4.28;2.38;;;14.10;82.90;;;;;;5014566;28;20097;-83
2023/06/06 03:36:02;;;;;;;4.30;2.42;;;14.20;82.40;;;;;;5015384;28;20029;-80
2023/06/06 03:38:28;;;;;;;;;;;14.30;82.40;;;;;;5017696;28;20022;-81
2023/06/06 03:40:54;;;;;;;5.50;2.83;;;14.40;82.50;;;;;;5015274;28;19912;-80
2023/06/06 03:43:20;;;;;;;6.43;2.50;;;14.30;81.80;;;;;;4996890;28;20066;-82
2023/06/06 03:45:46;;;;;;;5.00;2.38;;;14.30;81.30;;;;;;5013797;28;20026;-82
2023/06/06 03:48:12;;;;;;;4.32;2.67;;;14.30;81.00;;;;;;4997732;28;20034;-82
2023/06/06 03:50:39;;;;;;;4.88;2.60;;;14.30;80.80;;;;;;5016052;28;20450;-84
2023/06/06 03:53:05;;;;;;;3.70;2.33;;;14.30;80.60;;;;;;5012851;28;20026;-82
2023/06/06 03:55:34;;;;;;;5.63;2.47;;;14.30;80.30;;;;;;5000542;28;20110;-82
2023/06/06 03:58:00;;;;;;;6.10;2.30;;;14.30;80.20;;;;;;5016987;28;20079;-81
2023/06/06 04:00:26;;;;;;;3.95;2.33;;;14.20;80.00;;;;;;5016730;28;20022;-83
2023/06/06 04:02:52;;;;;;;3.63;1.67;;;14.20;80.30;;;;;;5009612;28;20030;-82
2023/06/06 04:05:19;;;;;;;5.55;2.17;;;14.30;80.30;;;;;;5014504;28;20565;-82
2023/06/06 04:07:45;;;;;;;4.68;2.15;;;14.30;80.20;;;;;;5014178;28;20491;-82
2023/06/06 04:10:11;;;;;;;3.20;1.83;;;14.50;80.30;;;;;;4997257;28;20160;-82
2023/06/06 04:12:39;;;;;;;4.72;2.25;;;14.60;79.50;;;;;;5014983;28;20072;-82
2023/06/06 04:15:09;;;;;;;6.05;2.10;;;14.60;79.70;;;;;;5003242;28;20026;-82
2023/06/06 04:17:37;;;;;;;3.67;2.17;;;14.70;79.20;;;;;;5013937;28;20549;-81
2023/06/06 04:20:04;;;;;;;3.05;2.22;;;14.70;78.30;;;;;;5015949;28;20027;-82
2023/06/06 04:22:30;;;;;;;;;;;14.70;78.10;;;;;;5014359;28;20408;-83
2023/06/06 04:24:56;;;;;;;3.53;1.85;;;14.80;79.00;;;;;;5014080;28;19913;-82
2023/06/06 04:27:23;;;;;;;4.25;2.50;;;14.70;77.80;;;;;;5013636;28;20075;-82
2023/06/06 04:29:50;;;;;;;3.38;2.25;;;14.70;77.70;;;;;;5014282;28;20037;-82
2023/06/06 04:32:19;;;;;;;6.88;2.22;;;14.80;77.80;;;;;;4995453;28;20363;-82
2023/06/06 04:34:46;;;;;;;4.40;1.95;;;14.80;77.50;;;;;;5009792;28;20034;-82
2023/06/06 04:37:14;;;;;;;3.58;1.95;;;14.90;77.10;;;;;;5017098;28;20096;-81
2023/06/06 04:39:41;;;;;;;4.13;2.22;;;14.90;77.10;;;;;;4996978;28;20036;-82
2023/06/06 04:42:07;;;;;;;3.33;1.90;;;14.90;76.70;;;;;;5024088;28;20102;-84
2023/06/06 04:44:42;;;;;;;4.22;2.28;;;14.90;76.40;;;;;;5025778;28;20048;-83
2023/06/06 04:47:12;;;;;;;3.53;2.28;;;14.90;76.50;;;;;;5012826;28;20479;-81
2023/06/06 04:49:39;;;;;;;3.58;2.00;;;15.00;76.10;;;;;;5004206;28;20101;-81
2023/06/06 04:52:12;;;;;;;3.13;1.92;;;15.10;76.20;;;;;;5009751;28;20089;-83
2023/06/06 04:54:41;;;;;;;5.75;2.58;;;15.20;76.30;;;;;;5011067;28;20026;-83
2023/06/06 04:57:08;;;;;;;2.83;1.98;;;15.30;75.70;;;;;;5021076;28;20022;-83
2023/06/06 04:59:37;;;;;;;3.70;2.20;;;15.40;75.40;;;;;;5005648;28;20472;-81
2023/06/06 05:02:06;;;;;;;4.32;2.20;;;15.50;75.30;;;;;;5003855;28;20046;-82
2023/06/06 05:04:32;;;;;;;3.50;2.00;;;15.60;75.40;;;;;;5031948;28;20056;-82
2023/06/06 05:06:59;;;;;;;3.95;1.98;;;15.70;75.90;;;;;;5022449;28;20018;-82
2023/06/06 05:09:26;;;;;;;4.45;2.05;;;16.20;73.60;;;;;;4996664;28;20069;-84
2023/06/06 05:11:54;;;;;;;6.43;2.10;;;17.00;71.30;;;;;;5015897;28;20052;-85
2023/06/06 05:14:23;;;;;;;5.50;2.15;;;17.90;68.80;;;;;;4995564;28;20495;-82
2023/06/06 05:16:55;;;;;;;3.55;2.20;;;19.00;66.50;;;;;;5006171;28;20041;-82
2023/06/06 05:19:21;;;;;;;4.35;1.75;;;20.40;63.00;;;;;;5012996;28;20097;-83
2023/06/06 05:21:47;;;;;;;5.03;2.25;;;21.30;57.90;;;;;;4986934;28;20058;-83
2023/06/06 05:24:14;;;;;;;6.20;1.95;;;22.20;55.40;;;;;;5002896;28;20076;-85
2023/06/06 05:26:41;;;;;;;2.67;1.90;;;22.90;53.30;;;;;;5004388;28;20491;-84
2023/06/06 05:29:07;;;;;;;7.53;2.25;;;23.40;51.70;;;;;;4995559;28;20125;-86
2023/06/06 05:31:33;;;;;;;7.50;1.70;;;23.80;49.80;;;;;;5005315;28;20053;-83
2023/06/06 05:34:00;;;;;;;4.73;2.23;;;24.30;49.20;;;;;;5008671;28;20053;-85
2023/06/06 05:36:26;;;;;;;2.83;1.83;;;25.00;47.30;;;;;;4998764;28;20032;-84
2023/06/06 05:38:52;;;;;;;1.70;1.60;;;25.50;45.80;;;;;;5018465;28;20395;-84
2023/06/06 05:41:19;;;;;;;2.20;1.40;;;25.60;44.60;;;;;;5000883;28;20037;-85
2023/06/06 05:43:46;;;;;;;4.50;1.42;;;25.70;43.80;;;;;;5023798;28;20029;-81
2023/06/06 05:46:13;;;;;;;2.95;1.60;;;25.60;43.80;;;;;;5016408;28;20029;-81
2023/06/06 05:48:40;;;;;;;4.03;1.77;;;25.40;43.90;;;;;;5010702;28;20041;-80
2023/06/06 05:51:07;;;;;;;3.08;1.30;;;25.80;44.10;;;;;;5012227;28;20054;-81
2023/06/06 05:53:33;;;;;;;6.25;1.77;;;;;;;;;;5016190;28;20103;-81
2023/06/06 05:55:59;;;;;;;6.07;2.17;;;26.20;43.10;;;;;;5003848;28;20395;-83
2023/06/06 05:58:25;;;;;;;4.93;1.55;;;27.10;42.60;;;;;;5023444;28;20121;-81
2023/06/06 06:00:52;;;;;;;2.93;1.50;;;27.80;41.40;;;;;;5021800;28;20078;-80
2023/06/06 06:03:21;;;;;;;3.67;1.67;;;28.50;40.90;;;;;;5023050;28;20041;-80
2023/06/06 06:05:47;;;;;;;4.70;1.90;;;29.30;39.60;;;;;;4988770;28;20640;-80
2023/06/06 06:08:13;;;;;;;3.20;1.38;;;30.10;38.10;;;;;;4987801;28;20050;-80
2023/06/06 06:10:39;;;;;;;4.70;1.52;;;31.00;36.90;;;;;;5012208;28;20025;-80
2023/06/06 06:13:06;;;;;;;3.70;1.52;;;31.50;36.20;;;;;;5012164;28;20034;-80
2023/06/06 06:15:33;;;;;;;2.60;1.30;;;32.00;35.50;;;;;;5012469;28;20464;-80
2023/06/06 06:18:00;;;;;;;2.60;1.88;;;32.90;35.20;;;;;;4995773;28;20034;-79
2023/06/06 06:20:26;;;;;;;7.38;1.73;;;33.30;34.20;;;;;;5012445;28;20041;-80
2023/06/06 06:22:52;;;;;;;4.55;1.52;;;33.30;33.80;;;;;;5005511;28;20049;-80
2023/06/06 06:25:19;;;;;;;3.03;2.07;;;33.50;34.00;;;;;;5004887;28;20022;-81
2023/06/06 06:27:46;;;;;;;5.55;2.20;;;33.70;34.00;;;;;;5014629;28;20084;-80
2023/06/06 06:30:12;;;;;;;;;;;;;;;;;;4998924;28;20048;-80
2023/06/06 06:32:42;;;;;;;2.88;1.50;;;34.40;33.50;;;;;;5022912;28;19928;-80
2023/06/06 06:35:08;;;;;;;6.57;1.98;;;33.50;32.50;;;;;;5024547;28;20022;-81
2023/06/06 06:37:37;;;;;;;3.92;1.52;;;33.30;33.00;;;;;;4998292;28;20491;-81
2023/06/06 06:40:12;;;;;;;2.10;1.55;;;;;;;;;;4998033;28;20061;-81
2023/06/06 06:42:40;;;;;;;6.35;1.58;;;35.40;32.00;;;;;;5016226;28;20029;-80
2023/06/06 06:45:08;;;;;;;2.03;1.52;;;35.40;31.40;;;;;;5016609;28;20471;-81
2023/06/06 06:47:35;;;;;;;2.72;1.50;;;36.00;30.60;;;;;;5016224;28;20026;-81
2023/06/06 06:50:01;;;;;;;37.45;7.18;;;36.50;30.20;;;;;;5026109;28;20060;-79
2023/06/06 06:52:27;;;;;;;4.72;2.03;;;37.20;30.10;;;;;;5025925;28;20036;-80
2023/06/06 06:54:58;;;;;;;3.17;1.77;;;37.30;29.50;;;;;;5031874;28;20403;-79
2023/06/06 06:57:28;;;;;;;4.22;1.40;;;36.80;29.30;;;;;;5012418;28;20033;-80
2023/06/06 06:59:58;;;;;;;3.45;1.35;;;36.30;29.80;;;;;;5025654;28;20094;-80
2023/06/06 07:02:26;;;;;;;3.03;1.20;;;36.00;29.90;;;;;;5022787;28;20356;-79
2023/06/06 07:04:53;;;;;;;2.95;1.55;;;36.20;30.00;;;;;;5015866;28;20026;-80
2023/06/06 07:07:19;;;;;;;5.05;2.72;;;36.20;30.00;;;;;;5015885;28;20030;-80
2023/06/06 07:09:45;;;;;;;2.17;1.33;;;36.50;29.70;;;;;;5015958;28;20057;-79
2023/06/06 07:12:11;;;;;;;5.72;1.52;;;36.50;29.10;;;;;;5015915;28;20065;-80
2023/06/06 07:14:41;;;;;;;3.40;1.23;;;36.30;29.30;;;;;;5015197;28;20026;-80
2023/06/06 07:17:07;;;;;;;9.60;2.08;;;36.30;29.20;;;;;;4997475;28;20026;-81
2023/06/06 07:19:36;;;;;;;2.78;1.48;;;36.20;29.50;;;;;;5015052;28;20235;-82
2023/06/06 07:22:06;;;;;;;3.47;1.42;;;36.70;29.70;;;;;;5014717;28;20026;-80
2023/06/06 07:24:32;;;;;;;3.35;1.30;;;37.60;29.40;;;;;;5015150;28;20096;-79
2023/06/06 07:26:59;;;;;;;4.00;1.70;;;37.40;29.00;;;;;;5014988;28;20112;-81
2023/06/06 07:29:27;;;;;;;2.00;1.42;;;37.50;29.20;;;;;;5014428;28;20044;-81
2023/06/06 07:31:56;;;;;;;12.73;6.80;;;38.10;28.60;;;;;;5006245;28;20019;-81
2023/06/06 07:34:22;;;;;;;4.82;2.20;;;37.30;29.00;;;;;;5017878;28;20073;-81
2023/06/06 07:36:49;;;;;;;6.97;1.90;;;38.20;29.50;;;;;;5000827;28;20158;-81
2023/06/06 07:39:14;;;;;;;;;;;38.90;29.10;;;;;;5010861;28;20114;-81
2023/06/06 07:41:41;;;;;;;10.27;2.30;;;;;;;;;;4997491;28;19948;-81
2023/06/06 07:44:07;;;;;;;3.85;1.73;;;;;;;;;;5013898;28;20037;-81
2023/06/06 07:46:35;;;;;;;12.18;2.50;;;;;;;;;;5014418;28;20025;-82
2023/06/06 07:49:01;;;;;;;4.97;1.83;;;;;;;;;;5014640;28;20033;-81
2023/06/06 07:51:28;;;;;;;2.03;1.55;;;;;;;;;;5014393;28;20018;-82
2023/06/06 07:53:55;;;;;;;4.40;1.70;;;;;;;;;;5015325;28;20080;-81
2023/06/06 07:56:21;;;;;;;2.55;1.77;;;;;;;;;;5021274;28;20036;-83
2023/06/06 07:58:52;;;;;;;;;;;40.20;28.40;;;;;;5024631;28;20045;-82
2023/06/06 08:01:23;;;;;;;4.15;1.42;;;40.30;28.80;;;;;;5025293;28;19912;-82
2023/06/06 08:03:54;;;;;;;8.70;2.80;;;40.40;28.20;;;;;;5022353;28;20028;-82
2023/06/06 08:06:25;;;;;;;3.45;1.90;;;40.30;27.40;;;;;;5015759;28;20032;-83
2023/06/06 08:08:54;;;;;;;4.50;2.38;;;39.90;27.60;;;;;;5013976;28;20049;-83
2023/06/06 08:11:20;;;;;;;2.78;2.25;;;39.70;27.50;;;;;;4996211;28;20040;-81
2023/06/06 08:13:46;;;;;;;3.08;1.48;;;39.90;27.40;;;;;;5011416;28;20032;-80
2023/06/06 08:16:12;;;;;;;3.88;1.73;;;40.10;27.10;;;;;;5013974;28;20021;-81
2023/06/06 08:18:38;;;;;;;2.30;1.60;;;39.90;27.40;;;;;;4996762;28;20390;-82
2023/06/06 08:21:04;;;;;;;;;;;39.90;27.10;;;;;;5014167;28;20018;-83
2023/06/06 08:23:30;;;;;;;5.32;1.75;;;39.60;27.90;;;;;;5012478;28;19910;-81
2023/06/06 08:25:57;;;;;;;3.33;1.45;;;39.30;27.00;;;;;;5013386;28;20014;-82
2023/06/06 08:28:28;;;;;;;4.05;1.52;;;38.30;27.20;;;;;;4992757;28;20149;-82
2023/06/06 08:30:54;;;;;;;3.40;1.55;;;38.00;27.60;;;;;;5010956;28;20438;-81
2023/06/06 08:33:20;;;;;;;4.20;1.60;;;37.30;28.00;;;;;;5015618;28;20048;-83
2023/06/06 08:35:49;;;;;;;3.00;1.40;;;37.50;28.10;;;;;;4998143;28;20615;-81
2023/06/06 08:38:15;;;;;;;3.33;1.50;;;38.40;27.90;;;;;;4995687;28;20022;-83
2023/06/06 08:40:42;;;;;;;2.03;1.45;;;38.70;27.00;;;;;;5013023;28;20033;-82
2023/06/06 08:43:09;;;;;;;3.03;1.50;;;39.10;27.10;;;;;;5008422;28;20015;-83
2023/06/06 08:45:37;;;;;;;5.13;1.90;;;39.20;27.20;;;;;;4996354;28;20439;-82
2023/06/06 08:48:04;;;;;;;5.20;1.77;;;38.30;27.10;;;;;;5014318;28;20723;-81
2023/06/06 08:50:31;;;;;;;4.38;2.25;;;35.80;27.80;;;;;;5013947;28;20030;-83
2023/06/06 08:53:04;;;;;;;;;;;34.30;29.30;;;;;;5001732;28;20496;-82
2023/06/06 08:55:35;;;;;;;4.93;2.05;;;34.60;29.20;;;;;;5024718;28;19905;-81
2023/06/06 08:58:03;;;;;;;3.38;1.77;;;;;;;;;;5028864;28;20018;-82
2023/06/06 09:00:29;;;;;;;4.10;1.98;;;37.10;27.50;;;;;;5026096;28;20022;-82
2023/06/06 09:02:56;;;;;;;3.67;2.00;;;37.60;27.70;;;;;;5018087;28;20080;-81
2023/06/06 09:05:22;;;;;;;2.90;1.40;;;38.70;27.70;;;;;;5012311;28;20034;-82
2023/06/06 09:07:49;;;;;;;;;;;39.40;27.50;;;;;;4995865;28;20526;-82
2023/06/06 09:10:16;;;;;;;6.50;1.75;;;40.40;27.90;;;;;;4995150;28;19960;-82
2023/06/06 09:12:43;;;;;;;2.30;1.55;;;40.80;26.50;;;;;;4981906;28;20036;-82
2023/06/06 09:15:10;;;;;;;3.72;1.55;;;40.40;26.40;;;;;;5013075;28;20018;-84
2023/06/06 09:17:40;;;;;;;3.50;1.85;;;39.80;27.10;;;;;;5012696;28;20144;-82
2023/06/06 09:20:11;;;;;;;2.90;1.77;;;39.50;26.90;;;;;;4994287;28;20129;-82
2023/06/06 09:22:57;;;;;;;4.70;1.77;;;39.80;26.70;;;;;;4994472;28;20433;-82
2023/06/06 09:25:25;;;;;;;2.95;2.08;;;39.50;26.20;;;;;;4995109;28;20030;-81
2023/06/06 09:27:59;;;;;;;2.13;1.63;;;38.30;26.40;;;;;;5012564;28;20033;-81
2023/06/06 09:30:28;;;;;;;4.63;1.88;;;37.00;27.10;;;;;;5013731;28;20030;-83
2023/06/06 09:33:02;;;;;;;3.38;1.58;;;36.80;27.10;;;;;;5013471;28;20032;-85
2023/06/06 09:35:42;;;;;;;4.70;3.22;;;37.80;27.10;;;;;;5014545;28;20483;-82
2023/06/06 09:38:16;;;;;;;7.28;3.22;;;38.80;26.60;;;;;;5013895;28;20025;-83
2023/06/06 09:40:51;;;;;;;3.10;1.70;;;39.20;26.10;;;;;;5013978;28;20101;-82
2023/06/06 09:43:23;;;;;;;2.08;1.55;;;39.20;26.30;;;;;;4994828;28;20476;-81
2023/06/06 09:45:50;;;;;;;2.45;1.80;;;39.00;26.50;;;;;;5013090;28;20018;-80
2023/06/06 09:48:25;;;;;;;3.35;1.67;;;38.70;26.60;;;;;;5015206;28;20037;-81
2023/06/06 09:50:52;;;;;;;3.77;2.00;;;38.40;26.90;;;;;;5013445;28;20387;-83
2023/06/06 09:53:18;;;;;;;2.30;1.60;;;38.40;27.00;;;;;;5014226;28;20247;-82
2023/06/06 09:55:44;;;;;;;3.17;1.80;;;39.00;26.50;;;;;;5012760;28;20030;-82
2023/06/06 09:58:17;;;;;;;3.65;1.60;;;37.00;26.80;;;;;;5013098;28;20521;-82
2023/06/06 10:00:47;;;;;;;3.33;1.95;;;35.80;27.50;;;;;;5014441;28;20075;-82
2023/06/06 10:03:18;;;;;;;4.25;2.30;;;34.00;28.30;;;;;;5019214;28;20040;-81
2023/06/06 10:05:48;;;;;;;2.90;2.00;;;32.10;29.20;;;;;;5019335;28;20026;-81
2023/06/06 10:08:17;;;;;;;3.33;2.08;;;;;;;;;;5018802;28;20100;-82
2023/06/06 10:10:45;;;;;;;9.45;2.67;;;;;;;;;;5019346;28;20021;-84
2023/06/06 10:13:13;;;;;;;4.28;2.33;;;;;;;;;;5018130;28;20033;-82
2023/06/06 10:15:40;;;;;;;5.93;2.67;;;30.20;30.80;;;;;;5018749;28;20029;-83
2023/06/06 10:18:07;;;;;;;4.55;2.58;;;25.80;35.10;;;;;;5000999;28;20026;-83
2023/06/06 10:20:33;;;;;;;;;;;24.80;36.90;;;;;;5018902;28;20057;-82
2023/06/06 10:23:03;;;;;;;7.15;4.95;;;25.10;35.80;;;;;;5019402;28;19906;-81
2023/06/06 10:25:29;;;;;;;2.60;1.30;;;25.90;36.00;;;;;;5018803;28;20030;-82
2023/06/06 10:28:06;;;;;;;2.83;1.60;;;26.20;35.60;;;;;;5018564;28;20022;-81
2023/06/06 10:30:45;;;;;;;4.90;1.92;;;25.60;36.10;;;;;;5019494;28;20034;-81
2023/06/06 10:33:32;;;;;;;4.15;2.33;;;;;;;;;;5005951;28;20057;-82
2023/06/06 10:36:03;;;;;;;5.15;2.40;;;25.00;36.90;;;;;;5019209;28;20014;-83
2023/06/06 10:38:29;;;;;;;3.15;2.13;;;24.20;38.30;;;;;;5002528;28;20022;-82
2023/06/06 10:40:58;;;;;;;2.90;1.98;;;;;;;;;;5002236;28;20754;-82
2023/06/06 10:43:36;;;;;;;4.82;2.35;;;;;;;;;;5019219;28;20113;-80
2023/06/06 10:46:03;;;;;;;2.55;2.28;;;;;;;;;;5019041;28;20025;-82
2023/06/06 10:48:39;;;;;;;5.97;2.22;;;;;;;;;;5030006;28;20033;-83
2023/06/06 10:51:06;;;;;;;7.40;2.13;;;;;;;;;;5020103;28;20384;-82
2023/06/06 10:53:32;;;;;;;3.92;2.35;;;;;;;;;;5013455;28;20018;-81
2023/06/06 10:55:59;;;;;;;3.00;2.42;;;;;;;;;;5020959;28;20088;-82
2023/06/06 10:58:29;;;;;;;5.68;2.42;;;;;;;;;;5026604;28;20014;-81
2023/06/06 11:01:05;;;;;;;3.47;2.38;;;23.90;39.50;;;;;;5020457;28;20033;-81
2023/06/06 11:03:41;;;;;;;3.22;2.15;;;23.10;40.80;;;;;;4997603;28;20030;-81
2023/06/06 11:06:11;;;;;;;4.35;2.42;;;22.70;41.60;;;;;;5024520;28;20021;-81
2023/06/06 11:08:43;;;;;;;3.95;2.13;;;22.50;42.90;;;;;;5001559;28;20046;-83
2023/06/06 11:11:24;;;;;;;4.57;2.13;;;22.40;42.80;;;;;;5014264;28;20014;-83
2023/06/06 11:13:57;;;;;;;4.15;2.30;;;22.40;42.40;;;;;;4996845;28;20061;-82
2023/06/06 11:16:47;;;;;;;3.58;2.30;;;22.20;43.00;;;;;;5015959;28;20497;-82
2023/06/06 11:19:29;;;;;;;4.32;2.53;;;22.50;43.10;;;;;;4977322;28;20463;-81
2023/06/06 11:22:00;;;;;;;3.63;2.45;;;22.60;43.10;;;;;;5002864;28;20026;-82
2023/06/06 11:24:35;;;;;;;3.70;2.20;;;22.40;43.20;;;;;;5014038;28;20014;-82
2023/06/06 11:27:02;;;;;;;5.47;2.05;;;22.00;43.80;;;;;;4997902;28;20022;-81
2023/06/06 11:29:31;;;;;;;5.60;2.58;;;21.70;44.80;;;;;;5015081;28;20022;-82
2023/06/06 11:35:20;;;;;;;5.57;2.58;;;21.40;45.60;;;;;;5006316;28;20464;-83
2023/06/06 11:41:25;;;;;;;6.28;2.33;;;21.30;45.10;;;;;;4954363;29;20058;-81
2023/06/06 11:44:18;;;;;;;4.20;2.33;;;21.30;45.30;;;;;;4955312;29;20035;-84
2023/06/06 11:46:48;;;;;;;4.10;2.60;;;21.40;45.30;;;;;;4941697;29;20028;-81
2023/06/06 11:49:28;;;;;;;;;;;;;;;;;;;;;
2023/06/06 11:54:28;;;;;;;6.13;2.88;;;21.30;46.80;;;;;;5107955;22;20049;-83
2023/06/06 11:56:57;;;;;;;3.97;2.63;;;21.40;46.10;;;;;;5014344;28;20025;-81
2023/06/06 11:59:24;;;;;;;4.63;2.40;;;21.40;45.90;;;;;;5014299;28;20030;-81
2023/06/06 12:01:53;;;;;;;5.30;2.40;;;21.50;46.00;;;;;;5015213;28;20061;-81
2023/06/06 12:04:23;;;;;;;5.60;2.67;;;21.50;46.30;;;;;;5014915;28;20026;-83
2023/06/06 12:06:51;;;;;;;5.75;2.85;;;21.50;46.20;;;;;;5014210;28;20026;-82
2023/06/06 12:09:19;;;;;;;3.63;2.85;;;21.50;46.30;;;;;;5014608;28;20038;-82
2023/06/06 12:11:57;;;;;;;3.05;2.17;;;21.40;46.50;;;;;;5014178;28;20104;-82
2023/06/06 12:14:25;;;;;;;4.25;2.35;;;21.40;46.50;;;;;;5014903;28;20025;-82
2023/06/06 12:16:51;;;;;;;9.90;4.95;;;21.10;47.10;;;;;;5015435;28;20025;-82
2023/06/06 12:19:18;;;;;;;18.55;10.18;;;21.00;47.70;;;;;;5012333;28;20113;-82
2023/06/06 12:21:48;;;;;;;8.52;4.25;;;21.10;47.80;;;;;;4994890;28;20065;-82
2023/06/06 12:24:21;;;;;;;4.80;2.90;;;21.40;47.80;;;;;;5011197;28;20025;-81
2023/06/06 12:26:57;;;;;;;5.47;3.17;;;21.60;47.10;;;;;;5022199;28;20101;-81
2023/06/06 12:29:27;;;;;;;4.50;2.35;;;21.60;46.90;;;;;;5016083;28;20057;-82
2023/06/06 12:32:18;;;;;;;6.78;3.40;;;21.50;46.60;;;;;;4997398;28;20033;-81
2023/06/06 12:35:02;;;;;;;5.85;3.25;;;21.40;47.30;;;;;;5009267;28;20030;-81
2023/06/06 12:37:47;;;;;;;6.18;3.13;;;21.30;47.50;;;;;;5008453;28;20025;-82
2023/06/06 12:40:19;;;;;;;6.13;3.13;;;21.40;47.10;;;;;;5018721;28;20029;-81
2023/06/06 12:42:58;;;;;;;4.72;3.03;;;21.40;47.10;;;;;;5012938;28;20026;-81
2023/06/06 12:45:26;;;;;;;4.65;2.60;;;21.50;47.00;;;;;;5026807;28;20037;-81
2023/06/06 12:47:53;;;;;;;4.47;2.53;;;21.70;46.70;;;;;;5026655;28;20046;-82
2023/06/06 12:50:20;;;;;;;5.68;3.25;;;21.90;45.40;;;;;;5027154;28;20041;-82
2023/06/06 12:52:47;;;;;;;4.35;1.90;;;21.90;44.90;;;;;;5020656;28;20423;-82
2023/06/06 12:55:13;;;;;;;4.00;2.50;;;21.80;44.50;;;;;;4995717;28;20026;-81
2023/06/06 12:57:39;;;;;;;3.85;2.47;;;21.70;44.70;;;;;;5014628;28;20083;-81
2023/06/06 13:00:08;;;;;;;3.95;2.30;;;21.50;44.50;;;;;;5014121;28;20052;-81
2023/06/06 13:02:34;;;;;;;3.65;2.58;;;21.40;44.30;;;;;;5012861;28;20044;-81
2023/06/06 13:05:01;;;;;;;5.13;2.28;;;21.30;44.60;;;;;;5014168;28;20033;-82
2023/06/06 13:07:26;;;;;;;4.32;2.92;;;21.20;45.10;;;;;;5017907;28;20510;-82
2023/06/06 13:09:55;;;;;;;8.40;3.22;;;21.10;45.90;;;;;;5024808;28;20034;-81
2023/06/06 13:12:25;;;;;;;5.10;2.78;;;21.10;46.70;;;;;;5017335;28;20021;-81
2023/06/06 13:14:55;;;;;;;5.88;2.88;;;21.20;46.80;;;;;;5013498;28;20022;-81